createdAt,value
2019-01-20T00:00:05.030Z,0.22
2019-01-20T00:01:11.850Z,0.21
2019-01-20T00:02:16.012Z,0.20
2019-01-20T00:03:19.928Z,0.18
2019-01-20T00:04:24.177Z,0.17
2019-01-20T00:05:28.365Z,0.17
2019-01-20T00:06:32.358Z,0.16
2019-01-20T00:07:36.585Z,0.14
2019-01-20T00:08:40.585Z,0.14
2019-01-20T00:09:44.847Z,0.13
2019-01-20T00:10:49.097Z,0.12
2019-01-20T00:11:53.340Z,0.13
2019-01-20T00:12:57.339Z,0.13
2019-01-20T00:14:01.190Z,0.12
2019-01-20T00:15:05.959Z,0.10
2019-01-20T00:16:09.967Z,0.10
2019-01-20T00:17:14.172Z,0.07
2019-01-20T00:18:18.020Z,0.05
2019-01-20T00:19:22.112Z,0.05
2019-01-20T00:20:26.480Z,0.04
2019-01-20T00:21:30.428Z,0.02
2019-01-20T00:22:34.456Z,0.02
2019-01-20T00:23:38.456Z,0.00
2019-01-20T00:24:42.349Z,-0.01
2019-01-20T00:25:46.293Z,-0.03
2019-01-20T00:26:50.301Z,-0.06
2019-01-20T00:27:54.950Z,-0.09
2019-01-20T00:28:58.958Z,-0.10
2019-01-20T00:30:03.566Z,-0.12
2019-01-20T00:31:07.587Z,-0.12
2019-01-20T00:32:11.451Z,-0.14
2019-01-20T00:33:15.660Z,-0.13
2019-01-20T00:34:20.081Z,-0.16
2019-01-20T00:35:23.945Z,-0.16
2019-01-20T00:36:27.960Z,-0.19
2019-01-20T00:37:31.897Z,-0.19
2019-01-20T00:38:35.759Z,-0.20
2019-01-20T00:39:39.694Z,-0.23
2019-01-20T00:40:44.189Z,-0.25
2019-01-20T00:41:48.393Z,-0.26
2019-01-20T00:42:52.397Z,-0.27
2019-01-20T00:43:56.665Z,-0.30
2019-01-20T00:45:02.904Z,-0.29
2019-01-20T00:46:07.254Z,-0.32
2019-01-20T00:47:11.478Z,-0.33
2019-01-20T00:48:15.467Z,-0.33
2019-01-20T00:49:19.838Z,-0.33
2019-01-20T00:50:24.054Z,-0.35
2019-01-20T00:51:28.054Z,-0.35
2019-01-20T00:52:32.394Z,-0.36
2019-01-20T00:53:36.393Z,-0.36
2019-01-20T00:54:40.396Z,-0.36
2019-01-20T00:55:44.505Z,-0.36
2019-01-20T00:56:48.519Z,-0.35
2019-01-20T00:57:52.837Z,-0.36
2019-01-20T00:58:56.840Z,-0.38
2019-01-20T01:00:00.845Z,-0.36
2019-01-20T01:01:05.528Z,-0.37
2019-01-20T01:02:09.555Z,-0.37
2019-01-20T01:03:13.561Z,-0.37
2019-01-20T01:04:17.840Z,-0.38
2019-01-20T01:05:22.093Z,-0.39
2019-01-20T01:06:26.042Z,-0.40
2019-01-20T01:07:30.131Z,-0.41
2019-01-20T01:08:34.138Z,-0.43
2019-01-20T01:09:38.065Z,-0.43
2019-01-20T01:10:42.083Z,-0.44
2019-01-20T01:11:46.095Z,-0.43
2019-01-20T01:12:51.046Z,-0.44
2019-01-20T01:13:55.345Z,-0.44
2019-01-20T01:14:59.374Z,-0.45
2019-01-20T01:16:03.381Z,-0.44
2019-01-20T01:17:07.693Z,-0.44
2019-01-20T01:18:11.734Z,-0.44
2019-01-20T01:19:15.723Z,-0.44
2019-01-20T01:20:20.324Z,-0.44
2019-01-20T01:21:24.618Z,-0.44
2019-01-20T01:22:28.897Z,-0.45
2019-01-20T01:23:32.766Z,-0.43
2019-01-20T01:24:36.766Z,-0.43
2019-01-20T01:25:41.034Z,-0.45
2019-01-20T01:26:45.344Z,-0.46
2019-01-20T01:27:49.354Z,-0.46
2019-01-20T01:28:53.958Z,-0.46
2019-01-20T01:29:57.981Z,-0.45
2019-01-20T01:31:02.052Z,-0.46
2019-01-20T01:32:06.087Z,-0.46
2019-01-20T01:33:10.098Z,-0.46
2019-01-20T01:34:13.960Z,-0.47
2019-01-20T01:35:18.214Z,-0.46
2019-01-20T01:36:22.141Z,-0.45
2019-01-20T01:37:26.069Z,-0.45
2019-01-20T01:38:30.333Z,-0.45
2019-01-20T01:39:34.646Z,-0.44
2019-01-20T01:40:38.809Z,-0.45
2019-01-20T01:41:42.733Z,-0.47
2019-01-20T01:42:46.728Z,-0.46
2019-01-20T01:43:50.740Z,-0.45
2019-01-20T01:44:54.998Z,-0.50
2019-01-20T01:45:58.920Z,-0.55
2019-01-20T01:47:02.771Z,-0.57
2019-01-20T01:48:06.758Z,-0.59
2019-01-20T01:49:10.770Z,-0.59
2019-01-20T01:50:15.813Z,-0.59
2019-01-20T01:51:19.733Z,-0.61
2019-01-20T01:52:23.915Z,-0.61
2019-01-20T01:53:27.860Z,-0.60
2019-01-20T01:54:31.785Z,-0.61
2019-01-20T01:55:35.713Z,-0.61
2019-01-20T01:56:39.637Z,-0.61
2019-01-20T01:57:43.637Z,-0.60
2019-01-20T01:58:47.571Z,-0.62
2019-01-20T01:59:51.494Z,-0.63
2019-01-20T02:00:55.491Z,-0.62
2019-01-20T02:01:59.409Z,-0.62
2019-01-20T02:03:03.423Z,-0.63
2019-01-20T02:04:07.679Z,-0.63
2019-01-20T02:05:11.775Z,-0.63
2019-01-20T02:06:15.936Z,-0.63
2019-01-20T02:07:19.936Z,-0.63
2019-01-20T02:08:23.932Z,-0.64
2019-01-20T02:09:28.197Z,-0.64
2019-01-20T02:10:32.231Z,-0.66
2019-01-20T02:11:36.184Z,-0.64
2019-01-20T02:12:40.224Z,-0.65
2019-01-20T02:13:44.408Z,-0.65
2019-01-20T02:14:48.408Z,-0.66
2019-01-20T02:15:52.593Z,-0.67
2019-01-20T02:16:56.835Z,-0.69
2019-01-20T02:18:00.842Z,-0.69
2019-01-20T02:19:04.850Z,-0.70
2019-01-20T02:20:10.623Z,-0.71
2019-01-20T02:21:14.734Z,-0.72
2019-01-20T02:22:18.734Z,-0.71
2019-01-20T02:23:23.038Z,-0.72
2019-01-20T02:24:27.343Z,-0.73
2019-01-20T02:25:31.634Z,-0.74
2019-01-20T02:26:35.705Z,-0.74
2019-01-20T02:27:39.709Z,-0.75
2019-01-20T02:28:43.640Z,-0.77
2019-01-20T02:29:47.681Z,-0.79
2019-01-20T02:30:51.707Z,-0.79
2019-01-20T02:31:55.706Z,-0.81
2019-01-20T02:33:00.358Z,-0.82
2019-01-20T02:34:04.667Z,-0.82
2019-01-20T02:35:09.155Z,-0.83
2019-01-20T02:36:13.149Z,-0.85
2019-01-20T02:37:17.085Z,-0.84
2019-01-20T02:38:21.090Z,-0.86
2019-01-20T02:39:25.027Z,-0.85
2019-01-20T02:40:29.082Z,-0.85
2019-01-20T02:41:33.093Z,-0.86
2019-01-20T02:42:37.109Z,-0.87
2019-01-20T02:43:41.108Z,-0.87
2019-01-20T02:44:45.496Z,-0.89
2019-01-20T02:45:49.512Z,-0.90
2019-01-20T02:46:53.806Z,-0.90
2019-01-20T02:47:57.738Z,-0.92
2019-01-20T02:49:02.026Z,-0.92
2019-01-20T02:50:07.462Z,-0.94
2019-01-20T02:51:11.482Z,-0.94
2019-01-20T02:52:15.755Z,-0.97
2019-01-20T02:53:19.750Z,-0.98
2019-01-20T02:54:24.103Z,-1.00
2019-01-20T02:55:28.488Z,-1.01
2019-01-20T02:56:32.816Z,-1.02
2019-01-20T02:57:36.828Z,-1.02
2019-01-20T02:58:40.754Z,-1.05
2019-01-20T02:59:45.157Z,-1.05
2019-01-20T03:00:49.146Z,-1.06
2019-01-20T03:01:53.394Z,-1.07
2019-01-20T03:02:57.427Z,-1.07
2019-01-20T03:04:01.428Z,-1.07
2019-01-20T03:05:07.327Z,-1.07
2019-01-20T03:06:11.758Z,-1.10
2019-01-20T03:07:15.765Z,-1.12
2019-01-20T03:08:19.702Z,-1.13
2019-01-20T03:09:23.636Z,-1.13
2019-01-20T03:10:27.565Z,-1.15
2019-01-20T03:11:31.495Z,-1.17
2019-01-20T03:12:35.586Z,-1.18
2019-01-20T03:13:39.589Z,-1.19
2019-01-20T03:14:43.548Z,-1.19
2019-01-20T03:15:47.589Z,-1.18
2019-01-20T03:16:51.944Z,-1.19
2019-01-20T03:17:56.494Z,-1.20
2019-01-20T03:19:00.731Z,-1.21
2019-01-20T03:20:06.807Z,-1.21
2019-01-20T03:21:10.751Z,-1.21
2019-01-20T03:22:15.063Z,-1.21
2019-01-20T03:23:20.393Z,-1.22
2019-01-20T03:24:24.592Z,-1.22
2019-01-20T03:25:28.526Z,-1.23
2019-01-20T03:26:32.474Z,-1.23
2019-01-20T03:27:36.524Z,-1.23
2019-01-20T03:28:40.533Z,-1.24
2019-01-20T03:29:44.394Z,-1.24
2019-01-20T03:30:48.331Z,-1.23
2019-01-20T03:31:52.347Z,-1.23
2019-01-20T03:32:56.493Z,-1.23
2019-01-20T03:34:00.562Z,-1.24
2019-01-20T03:35:05.563Z,-1.25
2019-01-20T03:36:09.543Z,-1.26
2019-01-20T03:37:13.559Z,-1.26
2019-01-20T03:38:17.494Z,-1.27
2019-01-20T03:39:21.724Z,-1.27
2019-01-20T03:40:25.742Z,-1.28
2019-01-20T03:41:29.756Z,-1.28
2019-01-20T03:42:34.528Z,-1.29
2019-01-20T03:43:38.548Z,-1.27
2019-01-20T03:44:42.494Z,-1.27
2019-01-20T03:45:46.502Z,-1.27
2019-01-20T03:46:50.538Z,-1.27
2019-01-20T03:47:54.554Z,-1.26
2019-01-20T03:48:58.815Z,-1.29
2019-01-20T03:50:03.105Z,-1.29
2019-01-20T03:51:07.374Z,-1.29
2019-01-20T03:52:11.734Z,-1.30
2019-01-20T03:53:15.990Z,-1.30
2019-01-20T03:54:19.995Z,-1.31
2019-01-20T03:55:24.464Z,-1.34
2019-01-20T03:56:28.385Z,-1.33
2019-01-20T03:57:32.321Z,-1.35
2019-01-20T03:58:36.559Z,-1.36
2019-01-20T03:59:40.552Z,-1.37
2019-01-20T04:00:44.796Z,-1.37
2019-01-20T04:01:48.801Z,-1.38
2019-01-20T04:02:59.762Z,-1.38
2019-01-20T04:04:03.764Z,-1.38
2019-01-20T04:05:07.787Z,-1.39
2019-01-20T04:06:11.807Z,-1.40
2019-01-20T04:07:15.804Z,-1.41
2019-01-20T04:08:19.817Z,-1.42
2019-01-20T04:09:23.990Z,-1.42
2019-01-20T04:10:28.257Z,-1.42
2019-01-20T04:11:32.788Z,-1.44
2019-01-20T04:12:36.710Z,-1.43
2019-01-20T04:13:41.225Z,-1.43
2019-01-20T04:14:45.149Z,-1.43
2019-01-20T04:15:49.147Z,-1.44
2019-01-20T04:16:53.142Z,-1.48
2019-01-20T04:17:57.327Z,-1.49
2019-01-20T04:19:01.385Z,-1.51
2019-01-20T04:20:06.688Z,-1.51
2019-01-20T04:21:10.605Z,-1.51
2019-01-20T04:22:14.453Z,-1.51
2019-01-20T04:23:20.121Z,-1.53
2019-01-20T04:24:24.011Z,-1.54
2019-01-20T04:25:27.938Z,-1.54
2019-01-20T04:26:31.896Z,-1.55
2019-01-20T04:27:35.884Z,-1.54
2019-01-20T04:28:40.150Z,-1.54
2019-01-20T04:29:44.077Z,-1.54
2019-01-20T04:30:48.078Z,-1.54
2019-01-20T04:31:52.000Z,-1.54
2019-01-20T04:32:56.272Z,-1.55
2019-01-20T04:34:00.212Z,-1.55
2019-01-20T04:35:04.718Z,-1.55
2019-01-20T04:36:08.854Z,-1.54
2019-01-20T04:37:13.222Z,-1.55
2019-01-20T04:38:17.156Z,-1.54
2019-01-20T04:39:21.403Z,-1.56
2019-01-20T04:40:25.978Z,-1.56
2019-01-20T04:41:30.270Z,-1.57
2019-01-20T04:42:34.573Z,-1.58
2019-01-20T04:43:38.586Z,-1.59
2019-01-20T04:44:42.510Z,-1.60
2019-01-20T04:45:46.513Z,-1.62
2019-01-20T04:46:50.515Z,-1.64
2019-01-20T04:47:54.742Z,-1.64
2019-01-20T04:48:58.946Z,-1.63
2019-01-20T04:50:03.120Z,-1.64
2019-01-20T04:51:07.408Z,-1.65
2019-01-20T04:52:11.489Z,-1.65
2019-01-20T04:53:15.815Z,-1.66
2019-01-20T04:54:19.831Z,-1.67
2019-01-20T04:55:23.831Z,-1.66
2019-01-20T04:56:27.762Z,-1.67
2019-01-20T04:57:31.947Z,-1.70
2019-01-20T04:58:35.940Z,-1.69
2019-01-20T04:59:39.813Z,-1.70
2019-01-20T05:00:43.752Z,-1.71
2019-01-20T05:01:47.682Z,-1.72
2019-01-20T05:02:51.681Z,-1.73
2019-01-20T05:03:55.817Z,-1.73
2019-01-20T05:04:59.765Z,-1.73
2019-01-20T05:06:04.620Z,-1.74
2019-01-20T05:07:08.629Z,-1.74
2019-01-20T05:08:12.846Z,-1.74
2019-01-20T05:09:16.717Z,-1.75
2019-01-20T05:10:20.717Z,-1.73
2019-01-20T05:11:24.574Z,-1.74
2019-01-20T05:12:28.851Z,-1.74
2019-01-20T05:13:32.842Z,-1.74
2019-01-20T05:14:37.061Z,-1.74
2019-01-20T05:15:41.395Z,-1.73
2019-01-20T05:16:45.728Z,-1.74
2019-01-20T05:17:50.007Z,-1.75
2019-01-20T05:18:55.005Z,-1.75
2019-01-20T05:19:59.140Z,-1.76
2019-01-20T05:21:02.964Z,-1.76
2019-01-20T05:22:07.222Z,-1.76
2019-01-20T05:23:11.587Z,-1.77
2019-01-20T05:24:15.512Z,-1.78
2019-01-20T05:25:19.528Z,-1.80
2019-01-20T05:26:23.538Z,-1.80
2019-01-20T05:27:27.542Z,-1.80
2019-01-20T05:28:31.468Z,-1.81
2019-01-20T05:29:35.400Z,-1.83
2019-01-20T05:30:39.532Z,-1.82
2019-01-20T05:31:43.470Z,-1.82
2019-01-20T05:32:47.470Z,-1.83
2019-01-20T05:33:51.578Z,-1.84
2019-01-20T05:34:56.973Z,-1.84
2019-01-20T05:36:01.273Z,-1.85
2019-01-20T05:37:05.297Z,-1.86
2019-01-20T05:38:09.477Z,-1.86
2019-01-20T05:39:13.506Z,-1.86
2019-01-20T05:40:17.863Z,-1.86
2019-01-20T05:41:22.197Z,-1.87
2019-01-20T05:42:26.117Z,-1.88
2019-01-20T05:43:30.713Z,-1.87
2019-01-20T05:44:34.569Z,-1.88
2019-01-20T05:45:38.812Z,-1.88
2019-01-20T05:46:42.823Z,-1.89
2019-01-20T05:47:46.887Z,-1.90
2019-01-20T05:48:50.909Z,-1.90
2019-01-20T05:49:54.830Z,-1.94
2019-01-20T05:50:58.953Z,-1.94
2019-01-20T05:52:02.841Z,-1.95
2019-01-20T05:53:06.846Z,-1.97
2019-01-20T05:54:10.776Z,-1.96
2019-01-20T05:55:15.385Z,-1.97
2019-01-20T05:56:19.328Z,-1.96
2019-01-20T05:57:23.184Z,-1.96
2019-01-20T05:58:27.492Z,-1.96
2019-01-20T05:59:31.360Z,-1.95
2019-01-20T06:00:36.176Z,-1.96
2019-01-20T06:01:40.744Z,-1.97
2019-01-20T06:02:45.018Z,-1.98
2019-01-20T06:03:48.887Z,-1.99
2019-01-20T06:04:53.496Z,-2.00
2019-01-20T06:05:57.888Z,-2.01
2019-01-20T06:07:01.824Z,-2.02
2019-01-20T06:08:06.077Z,-2.03
2019-01-20T06:09:09.930Z,-2.04
2019-01-20T06:10:14.591Z,-2.05
2019-01-20T06:11:18.934Z,-2.04
2019-01-20T06:12:22.940Z,-2.06
2019-01-20T06:13:26.994Z,-2.07
2019-01-20T06:14:31.141Z,-2.07
2019-01-20T06:15:35.550Z,-2.08
2019-01-20T06:16:39.858Z,-2.09
2019-01-20T06:17:44.164Z,-2.09
2019-01-20T06:18:48.358Z,-2.09
2019-01-20T06:19:52.283Z,-2.10
2019-01-20T06:20:56.287Z,-2.10
2019-01-20T06:22:00.320Z,-2.12
2019-01-20T06:23:04.588Z,-2.13
2019-01-20T06:24:08.956Z,-2.14
2019-01-20T06:25:13.423Z,-2.15
2019-01-20T06:26:17.347Z,-2.17
2019-01-20T06:27:21.633Z,-2.15
2019-01-20T06:28:25.638Z,-2.16
2019-01-20T06:29:29.861Z,-2.18
2019-01-20T06:30:34.468Z,-2.19
2019-01-20T06:31:38.421Z,-2.20
2019-01-20T06:32:42.449Z,-2.21
2019-01-20T06:33:46.626Z,-2.23
2019-01-20T06:34:50.829Z,-2.25
2019-01-20T06:35:55.076Z,-2.26
2019-01-20T06:36:59.176Z,-2.27
2019-01-20T06:38:03.357Z,-2.25
2019-01-20T06:39:08.591Z,-2.27
2019-01-20T06:40:13.304Z,-2.29
2019-01-20T06:41:17.303Z,-2.31
2019-01-20T06:42:21.741Z,-2.30
2019-01-20T06:43:25.860Z,-2.30
2019-01-20T06:44:29.787Z,-2.31
2019-01-20T06:45:33.742Z,-2.31
2019-01-20T06:46:37.741Z,-2.30
2019-01-20T06:47:41.849Z,-2.31
2019-01-20T06:48:46.233Z,-2.32
2019-01-20T06:49:50.448Z,-2.32
2019-01-20T06:50:55.053Z,-2.33
2019-01-20T06:51:59.872Z,-2.31
2019-01-20T06:53:03.814Z,-2.31
2019-01-20T06:54:07.736Z,-2.30
2019-01-20T06:55:12.711Z,-2.31
2019-01-20T06:56:16.804Z,-2.30
2019-01-20T06:57:20.729Z,-2.31
2019-01-20T06:58:25.009Z,-2.29
2019-01-20T06:59:29.728Z,-2.29
2019-01-20T07:00:34.773Z,-2.27
2019-01-20T07:01:38.957Z,-2.25
2019-01-20T07:02:43.290Z,-2.27
2019-01-20T07:03:47.494Z,-2.28
2019-01-20T07:04:52.185Z,-2.29
2019-01-20T07:05:56.493Z,-2.29
2019-01-20T07:07:00.501Z,-2.30
2019-01-20T07:08:04.513Z,-2.29
2019-01-20T07:09:09.263Z,-2.28
2019-01-20T07:10:14.461Z,-2.28
2019-01-20T07:11:18.449Z,-2.27
2019-01-20T07:12:22.472Z,-2.26
2019-01-20T07:13:26.337Z,-2.26
2019-01-20T07:14:30.268Z,-2.25
2019-01-20T07:15:34.269Z,-2.24
2019-01-20T07:16:38.273Z,-2.23
2019-01-20T07:17:42.209Z,-2.24
2019-01-20T07:18:46.158Z,-2.23
2019-01-20T07:19:50.453Z,-2.21
2019-01-20T07:20:55.065Z,-2.21
2019-01-20T07:21:59.797Z,-2.20
2019-01-20T07:23:04.503Z,-2.19
2019-01-20T07:24:08.446Z,-2.17
2019-01-20T07:25:12.914Z,-2.16
2019-01-20T07:26:17.220Z,-2.16
2019-01-20T07:27:21.234Z,-2.15
2019-01-20T07:28:25.158Z,-2.13
2019-01-20T07:29:29.429Z,-2.12
2019-01-20T07:30:33.511Z,-2.11
2019-01-20T07:31:37.473Z,-2.08
2019-01-20T07:32:41.800Z,-2.07
2019-01-20T07:33:46.505Z,-2.06
2019-01-20T07:34:50.516Z,-2.04
2019-01-20T07:35:54.868Z,-2.03
2019-01-20T07:36:59.175Z,-2.01
2019-01-20T07:38:03.486Z,-2.00
2019-01-20T07:39:08.612Z,-1.98
2019-01-20T07:40:14.167Z,-1.98
2019-01-20T07:41:18.248Z,-1.93
2019-01-20T07:42:22.766Z,-1.92
2019-01-20T07:43:27.022Z,-1.91
2019-01-20T07:44:30.954Z,-1.90
2019-01-20T07:45:34.956Z,-1.89
2019-01-20T07:46:39.586Z,-1.88
2019-01-20T07:47:43.897Z,-1.86
2019-01-20T07:48:47.821Z,-1.80
2019-01-20T07:49:52.249Z,-1.74
2019-01-20T07:50:56.301Z,-1.69
2019-01-20T07:52:00.226Z,-1.65
2019-01-20T07:53:04.368Z,-1.60
2019-01-20T07:54:08.382Z,-1.56
2019-01-20T07:55:12.389Z,-1.52
2019-01-20T07:56:16.621Z,-1.47
2019-01-20T07:57:20.654Z,-1.42
2019-01-20T07:58:24.508Z,-1.38
2019-01-20T07:59:28.441Z,-1.33
2019-01-20T08:00:32.729Z,-1.27
2019-01-20T08:01:37.034Z,-1.22
2019-01-20T08:02:41.129Z,-1.21
2019-01-20T08:03:45.129Z,-1.18
2019-01-20T08:04:49.650Z,-1.13
2019-01-20T08:05:53.575Z,-1.10
2019-01-20T08:06:58.165Z,-1.06
2019-01-20T08:08:02.517Z,-1.01
2019-01-20T08:09:08.284Z,-0.98
2019-01-20T08:10:15.538Z,-0.95
2019-01-20T08:11:19.776Z,-0.92
2019-01-20T08:12:23.780Z,-0.90
2019-01-20T08:13:28.008Z,-0.89
2019-01-20T08:14:32.014Z,-0.85
2019-01-20T08:15:36.101Z,-0.82
2019-01-20T08:16:40.520Z,-0.80
2019-01-20T08:17:44.527Z,-0.78
2019-01-20T08:18:48.977Z,-0.75
2019-01-20T08:19:53.157Z,-0.72
2019-01-20T08:20:57.353Z,-0.70
2019-01-20T08:22:01.351Z,-0.70
2019-01-20T08:23:05.718Z,-0.68
2019-01-20T08:24:09.718Z,-0.65
2019-01-20T08:25:15.910Z,-0.63
2019-01-20T08:26:19.833Z,-0.60
2019-01-20T08:27:23.824Z,-0.61
2019-01-20T08:28:27.994Z,-0.59
2019-01-20T08:29:31.912Z,-0.58
2019-01-20T08:30:35.922Z,-0.58
2019-01-20T08:31:39.849Z,-0.55
2019-01-20T08:32:43.845Z,-0.58
2019-01-20T08:33:48.089Z,-0.56
2019-01-20T08:34:52.271Z,-0.54
2019-01-20T08:35:56.452Z,-0.52
2019-01-20T08:37:00.808Z,-0.52
2019-01-20T08:38:05.005Z,-0.49
2019-01-20T08:39:09.290Z,-0.49
2019-01-20T08:40:15.665Z,-0.48
2019-01-20T08:41:19.949Z,-0.45
2019-01-20T08:42:24.193Z,-0.41
2019-01-20T08:43:31.992Z,-0.41
2019-01-20T08:44:38.888Z,-0.40
2019-01-20T08:46:06.505Z,-0.36
2019-01-20T08:47:42.226Z,-0.34
2019-01-20T08:48:46.225Z,-0.34
2019-01-20T08:49:50.144Z,-0.34
2019-01-20T08:50:54.047Z,-0.35
2019-01-20T08:51:58.040Z,-0.35
2019-01-20T08:53:02.038Z,-0.34
2019-01-20T08:54:06.281Z,-0.33
2019-01-20T08:55:10.769Z,-0.32
2019-01-20T08:56:14.709Z,-0.31
2019-01-20T08:57:18.701Z,-0.31
2019-01-20T08:58:22.703Z,-0.30
2019-01-20T08:59:26.869Z,-0.28
2019-01-20T09:00:31.110Z,-0.28
2019-01-20T09:01:35.045Z,-0.25
2019-01-20T09:02:38.978Z,-0.23
2019-01-20T09:03:42.901Z,-0.22
2019-01-20T09:04:46.903Z,-0.20
2019-01-20T09:05:51.425Z,-0.16
2019-01-20T09:06:55.628Z,-0.15
2019-01-20T09:07:59.549Z,-0.15
2019-01-20T09:09:05.250Z,-0.13
2019-01-20T09:10:20.155Z,-0.11
2019-01-20T09:11:24.005Z,-0.04
2019-01-20T09:12:28.435Z,-0.06
2019-01-20T09:13:39.352Z,-0.08
2019-01-20T09:14:38.477Z,-0.09
2019-01-20T09:15:42.478Z,-0.11
2019-01-20T09:16:46.488Z,-0.08
2019-01-20T09:17:50.409Z,-0.07
2019-01-20T09:18:54.917Z,-0.04
2019-01-20T09:19:59.203Z,-0.05
2019-01-20T09:21:03.618Z,-0.06
2019-01-20T09:22:07.631Z,-0.02
2019-01-20T09:23:11.569Z,-0.02
2019-01-20T09:24:15.562Z,0.00
2019-01-20T09:25:19.653Z,0.02
2019-01-20T09:26:23.646Z,0.05
2019-01-20T09:27:27.647Z,0.08
2019-01-20T09:28:32.136Z,0.12
2019-01-20T09:29:36.744Z,0.14
2019-01-20T09:30:40.745Z,0.17
2019-01-20T09:31:44.661Z,0.20
2019-01-20T09:32:48.689Z,0.21
2019-01-20T09:33:52.739Z,0.23
2019-01-20T09:34:56.764Z,0.24
2019-01-20T09:36:00.838Z,0.29
2019-01-20T09:37:05.165Z,0.30
2019-01-20T09:38:09.356Z,0.32
2019-01-20T09:39:14.847Z,0.33
2019-01-20T09:40:19.212Z,0.35
2019-01-20T09:41:23.416Z,0.36
2019-01-20T09:42:27.350Z,0.38
2019-01-20T09:43:31.195Z,0.41
2019-01-20T09:44:35.632Z,0.46
2019-01-20T09:45:39.889Z,0.51
2019-01-20T09:46:44.144Z,0.55
2019-01-20T09:47:48.077Z,0.54
2019-01-20T09:48:52.321Z,0.49
2019-01-20T09:49:56.331Z,0.49
2019-01-20T09:51:00.489Z,0.50
2019-01-20T09:52:04.484Z,0.51
2019-01-20T09:53:08.488Z,0.53
2019-01-20T09:54:12.660Z,0.55
2019-01-20T09:55:16.914Z,0.59
2019-01-20T09:56:20.752Z,0.65
2019-01-20T09:57:24.676Z,0.65
2019-01-20T09:58:28.611Z,0.64
2019-01-20T09:59:32.534Z,0.66
2019-01-20T10:00:36.516Z,0.66
2019-01-20T10:01:40.680Z,0.67
2019-01-20T10:02:44.928Z,0.70
2019-01-20T10:03:49.377Z,0.68
2019-01-20T10:04:53.370Z,0.69
2019-01-20T10:05:57.611Z,0.68
2019-01-20T10:07:01.606Z,0.71
2019-01-20T10:08:06.032Z,0.72
2019-01-20T10:09:10.297Z,0.75
2019-01-20T10:10:15.222Z,0.77
2019-01-20T10:11:19.217Z,0.79
2019-01-20T10:12:23.459Z,0.82
2019-01-20T10:13:27.847Z,0.87
2019-01-20T10:14:31.770Z,0.93
2019-01-20T10:15:35.681Z,0.89
2019-01-20T10:16:39.599Z,0.89
2019-01-20T10:17:43.852Z,0.93
2019-01-20T10:18:48.028Z,0.91
2019-01-20T10:19:51.873Z,0.93
2019-01-20T10:20:55.791Z,0.93
2019-01-20T10:21:59.948Z,0.92
2019-01-20T10:23:03.959Z,0.92
2019-01-20T10:24:08.213Z,0.93
2019-01-20T10:25:15.140Z,0.96
2019-01-20T10:26:18.018Z,0.99
2019-01-20T10:27:22.010Z,1.01
2019-01-20T10:28:27.280Z,1.03
2019-01-20T10:29:31.276Z,1.06
2019-01-20T10:30:36.613Z,1.13
2019-01-20T10:31:41.009Z,1.16
2019-01-20T10:32:47.980Z,1.18
2019-01-20T10:33:51.032Z,1.17
2019-01-20T10:34:55.667Z,1.19
2019-01-20T10:36:06.991Z,1.22
2019-01-20T10:37:11.432Z,1.22
2019-01-20T10:38:15.739Z,1.22
2019-01-20T10:39:19.680Z,1.23
2019-01-20T10:40:23.946Z,1.27
2019-01-20T10:41:27.865Z,1.28
2019-01-20T10:42:32.183Z,1.34
2019-01-20T10:43:36.460Z,1.37
2019-01-20T10:44:40.383Z,1.39
2019-01-20T10:45:44.564Z,1.38
2019-01-20T10:46:48.873Z,1.41
2019-01-20T10:47:52.723Z,1.45
2019-01-20T10:48:56.729Z,1.54
2019-01-20T10:50:00.745Z,1.55
2019-01-20T10:51:05.084Z,1.53
2019-01-20T10:52:09.085Z,1.52
2019-01-20T10:53:13.476Z,1.54
2019-01-20T10:54:17.484Z,1.57
2019-01-20T10:55:21.724Z,1.59
2019-01-20T10:56:25.955Z,1.62
2019-01-20T10:57:30.032Z,1.72
2019-01-20T10:58:34.149Z,1.72
2019-01-20T10:59:38.188Z,1.72
2019-01-20T11:00:42.625Z,1.75
2019-01-20T11:01:46.819Z,1.76
2019-01-20T11:02:51.652Z,1.83
2019-01-20T11:03:55.865Z,1.86
2019-01-20T11:04:59.875Z,1.85
2019-01-20T11:06:04.177Z,1.87
2019-01-20T11:07:08.476Z,1.90
2019-01-20T11:08:12.884Z,1.94
2019-01-20T11:09:16.943Z,2.01
2019-01-20T11:10:20.980Z,2.07
2019-01-20T11:11:25.096Z,2.06
2019-01-20T11:12:29.612Z,2.07
2019-01-20T11:13:33.531Z,2.10
2019-01-20T11:14:37.588Z,2.12
2019-01-20T11:15:41.592Z,2.16
2019-01-20T11:16:45.917Z,2.20
2019-01-20T11:17:50.329Z,2.20
2019-01-20T11:18:55.017Z,2.26
2019-01-20T11:19:59.252Z,2.30
2019-01-20T11:21:03.236Z,2.30
2019-01-20T11:22:07.241Z,2.30
2019-01-20T11:23:11.944Z,2.34
2019-01-20T11:24:16.203Z,2.37
2019-01-20T11:25:23.246Z,2.47
2019-01-20T11:26:27.660Z,2.47
2019-01-20T11:27:31.607Z,2.47
2019-01-20T11:28:35.608Z,2.48
2019-01-20T11:29:39.824Z,2.51
2019-01-20T11:30:43.768Z,2.53
2019-01-20T11:31:47.976Z,2.59
2019-01-20T11:32:52.224Z,2.62
2019-01-20T11:33:56.196Z,2.59
2019-01-20T11:35:00.270Z,2.62
2019-01-20T11:36:04.314Z,2.65
2019-01-20T11:37:08.693Z,2.68
2019-01-20T11:38:14.354Z,2.72
2019-01-20T11:39:19.049Z,2.74
2019-01-20T11:40:22.987Z,2.77
2019-01-20T11:41:28.419Z,2.80
2019-01-20T11:42:32.519Z,2.83
2019-01-20T11:43:36.658Z,2.87
2019-01-20T11:44:40.494Z,2.89
2019-01-20T11:45:44.751Z,2.93
2019-01-20T11:46:48.749Z,2.99
2019-01-20T11:47:53.309Z,2.98
2019-01-20T11:48:57.578Z,2.98
2019-01-20T11:50:01.957Z,2.98
2019-01-20T11:51:06.007Z,2.99
2019-01-20T11:52:10.263Z,3.00
2019-01-20T11:53:14.565Z,3.02
2019-01-20T11:54:19.764Z,3.04
2019-01-20T11:55:24.100Z,3.08
2019-01-20T11:56:28.161Z,3.10
2019-01-20T11:57:32.392Z,3.11
2019-01-20T11:58:36.714Z,3.09
2019-01-20T11:59:40.615Z,3.12
2019-01-20T12:00:45.016Z,3.16
2019-01-20T12:01:49.064Z,3.19
2019-01-20T12:02:53.828Z,3.21
2019-01-20T12:03:58.149Z,3.24
2019-01-20T12:05:02.097Z,3.27
2019-01-20T12:06:06.252Z,3.30
2019-01-20T12:07:10.275Z,3.30
2019-01-20T12:08:14.317Z,3.31
2019-01-20T12:09:19.162Z,3.33
2019-01-20T12:10:23.241Z,3.35
2019-01-20T12:11:27.271Z,3.37
2019-01-20T12:12:31.603Z,3.42
2019-01-20T12:13:35.700Z,3.44
2019-01-20T12:14:39.809Z,3.48
2019-01-20T12:15:44.081Z,3.48
2019-01-20T12:16:47.946Z,3.49
2019-01-20T12:17:51.975Z,3.49
2019-01-20T12:18:56.015Z,3.52
2019-01-20T12:20:00.003Z,3.52
2019-01-20T12:21:04.248Z,3.52
2019-01-20T12:22:08.245Z,3.55
2019-01-20T12:23:12.313Z,3.54
2019-01-20T12:24:16.419Z,3.56
2019-01-20T12:25:20.375Z,3.56
2019-01-20T12:26:24.532Z,3.53
2019-01-20T12:27:28.542Z,3.54
2019-01-20T12:28:32.636Z,3.55
2019-01-20T12:29:36.552Z,3.58
2019-01-20T12:30:40.901Z,3.61
2019-01-20T12:31:44.908Z,3.62
2019-01-20T12:32:49.144Z,3.61
2019-01-20T12:33:53.147Z,3.63
2019-01-20T12:34:57.140Z,3.66
2019-01-20T12:36:01.062Z,3.65
2019-01-20T12:37:05.277Z,3.65
2019-01-20T12:38:09.268Z,3.65
2019-01-20T12:39:13.275Z,3.68
2019-01-20T12:40:23.277Z,3.69
2019-01-20T12:41:27.511Z,3.70
2019-01-20T12:42:31.688Z,3.69
2019-01-20T12:43:35.687Z,3.69
2019-01-20T12:44:39.915Z,3.71
2019-01-20T12:45:44.190Z,3.71
2019-01-20T12:46:48.122Z,3.72
2019-01-20T12:47:52.155Z,3.71
2019-01-20T12:48:56.573Z,3.72
2019-01-20T12:50:00.492Z,3.72
2019-01-20T12:51:04.745Z,3.72
2019-01-20T12:52:09.119Z,3.74
2019-01-20T12:53:13.116Z,3.75
2019-01-20T12:54:17.600Z,3.77
2019-01-20T12:55:21.590Z,3.79
2019-01-20T12:56:25.503Z,3.77
2019-01-20T12:57:29.512Z,3.79
2019-01-20T12:58:33.752Z,3.78
2019-01-20T12:59:38.107Z,3.79
2019-01-20T13:00:42.103Z,3.81
2019-01-20T13:01:46.275Z,3.81
2019-01-20T13:02:50.210Z,3.80
2019-01-20T13:03:54.385Z,3.82
2019-01-20T13:04:58.713Z,3.82
2019-01-20T13:06:02.815Z,3.84
2019-01-20T13:07:07.070Z,3.87
2019-01-20T13:08:11.145Z,3.87
2019-01-20T13:09:15.384Z,3.85
2019-01-20T13:10:19.792Z,3.83
2019-01-20T13:11:24.554Z,3.85
2019-01-20T13:12:28.796Z,3.89
2019-01-20T13:13:32.810Z,3.88
2019-01-20T13:14:39.274Z,3.91
2019-01-20T13:15:42.939Z,3.89
2019-01-20T13:16:46.860Z,3.90
2019-01-20T13:17:50.853Z,3.88
2019-01-20T13:18:55.104Z,3.90
2019-01-20T13:19:59.020Z,3.90
2019-01-20T13:21:03.039Z,3.95
2019-01-20T13:22:07.222Z,3.93
2019-01-20T13:23:11.249Z,3.93
2019-01-20T13:24:15.250Z,3.90
2019-01-20T13:25:24.344Z,3.93
2019-01-20T13:26:28.521Z,4.01
2019-01-20T13:27:32.442Z,3.90
2019-01-20T13:28:36.327Z,3.88
2019-01-20T13:29:40.244Z,3.87
2019-01-20T13:30:44.485Z,3.91
2019-01-20T13:31:48.329Z,3.89
2019-01-20T13:32:52.328Z,3.82
2019-01-20T13:33:56.532Z,3.79
2019-01-20T13:35:01.157Z,3.76
2019-01-20T13:36:11.811Z,3.81
2019-01-20T13:37:15.859Z,3.73
2019-01-20T13:38:21.874Z,3.69
2019-01-20T13:39:26.585Z,3.70
2019-01-20T13:40:51.873Z,3.75
2019-01-20T13:41:56.077Z,3.74
2019-01-20T13:43:00.001Z,3.63
2019-01-20T13:44:04.275Z,3.53
2019-01-20T13:45:11.229Z,3.48
2019-01-20T13:46:15.565Z,3.44
2019-01-20T13:47:19.868Z,3.43
2019-01-20T13:48:24.306Z,3.40
2019-01-20T13:49:28.292Z,3.44
2019-01-20T13:50:32.449Z,3.50
2019-01-20T13:51:36.651Z,3.51
2019-01-20T13:52:40.581Z,3.50
2019-01-20T13:53:44.583Z,3.49
2019-01-20T13:54:48.788Z,3.40
2019-01-20T13:55:52.768Z,3.34
2019-01-20T13:56:56.694Z,3.33
2019-01-20T13:58:00.608Z,3.31